createdAt,value
2023-01-21T00:00:27.901Z,8.90
2023-01-21T00:05:30.133Z,8.80
2023-01-21T00:10:32.334Z,8.90
2023-01-21T00:15:36.575Z,8.90
2023-01-21T00:20:38.776Z,8.90
2023-01-21T00:25:41.072Z,9.00
2023-01-21T00:30:43.353Z,8.90
2023-01-21T00:35:45.720Z,8.90
2023-01-21T00:40:47.918Z,8.80
2023-01-21T00:45:50.102Z,8.80
2023-01-21T00:50:53.862Z,8.80
2023-01-21T00:56:00.397Z,8.70
2023-01-21T01:01:13.622Z,8.70
2023-01-21T01:06:18.993Z,8.70
2023-01-21T01:11:21.717Z,8.70
2023-01-21T01:16:24.858Z,8.60
2023-01-21T01:21:27.091Z,8.60
2023-01-21T01:26:29.840Z,8.60
2023-01-21T01:31:32.662Z,8.60
2023-01-21T01:36:34.883Z,8.60
2023-01-21T01:41:37.353Z,8.60
2023-01-21T01:46:39.584Z,8.60
2023-01-21T01:56:55.324Z,8.60
2023-01-21T02:02:01.089Z,8.60
2023-01-21T02:07:04.418Z,8.60
2023-01-21T02:12:07.355Z,8.60
2023-01-21T02:27:57.250Z,8.60
2023-01-21T02:38:39.157Z,8.50
2023-01-21T02:49:05.226Z,8.50
2023-01-21T02:54:35.876Z,8.50
2023-01-21T02:59:40.324Z,8.50
2023-01-21T03:10:06.712Z,8.40
2023-01-21T03:15:38.463Z,8.40
2023-01-21T03:20:47.610Z,8.30
2023-01-21T03:25:51.203Z,8.30
2023-01-21T03:31:00.879Z,8.30
2023-01-21T03:36:11.630Z,8.40
2023-01-21T03:41:23.543Z,8.30
2023-01-21T03:46:37.271Z,8.30
2023-01-21T03:51:47.485Z,8.30
2023-01-21T03:56:49.685Z,8.40
2023-01-21T04:01:51.872Z,8.50
2023-01-21T04:06:54.177Z,8.50
2023-01-21T04:11:56.453Z,8.60
2023-01-21T04:16:58.723Z,8.60
2023-01-21T04:22:01.289Z,8.60
2023-01-21T04:27:03.622Z,8.60
2023-01-21T04:32:05.931Z,8.60
2023-01-21T04:37:08.158Z,8.60
2023-01-21T04:42:10.415Z,8.60
2023-01-21T04:47:12.574Z,8.60
2023-01-21T04:52:14.770Z,8.60
2023-01-21T04:57:17.050Z,8.60
2023-01-21T05:02:19.277Z,8.60
2023-01-21T05:07:21.898Z,8.60
2023-01-21T05:12:24.207Z,8.50
2023-01-21T05:17:26.645Z,8.50
2023-01-21T05:22:28.842Z,8.50
2023-01-21T05:27:31.271Z,8.50
2023-01-21T05:32:33.586Z,8.60
2023-01-21T05:37:35.843Z,8.60
2023-01-21T05:42:38.089Z,8.60
2023-01-21T05:47:40.420Z,8.60
2023-01-21T05:52:42.648Z,8.70
2023-01-21T05:57:44.896Z,8.70
2023-01-21T06:02:47.081Z,8.70
2023-01-21T06:07:50.471Z,8.80
2023-01-21T06:12:52.856Z,8.90
2023-01-21T06:17:55.540Z,9.00
2023-01-21T06:22:58.661Z,8.90
2023-01-21T06:28:01.433Z,8.80
2023-01-21T06:33:03.780Z,8.80
2023-01-21T06:38:06.005Z,8.70
2023-01-21T06:43:08.443Z,8.60
2023-01-21T06:48:10.654Z,8.60
2023-01-21T06:53:13.416Z,8.50
2023-01-21T06:58:15.687Z,8.60
2023-01-21T07:03:17.966Z,8.70
2023-01-21T07:08:20.284Z,8.80
2023-01-21T07:13:23.453Z,9.00
2023-01-21T07:18:25.789Z,9.20
2023-01-21T07:23:28.112Z,9.30
2023-01-21T07:28:30.364Z,9.50
2023-01-21T07:33:32.725Z,9.70
2023-01-21T07:38:35.168Z,9.90
2023-01-21T07:43:37.422Z,10.80
2023-01-21T07:48:39.610Z,12.60
2023-01-21T07:53:41.800Z,14.40
2023-01-21T07:58:44.395Z,15.90
2023-01-21T08:03:46.615Z,16.60
2023-01-21T08:08:48.970Z,17.00
2023-01-21T08:13:51.246Z,16.70
2023-01-21T08:18:54.633Z,17.30
2023-01-21T08:23:56.948Z,17.60
2023-01-21T08:28:59.209Z,17.70
2023-01-21T08:34:01.816Z,17.60
2023-01-21T08:39:06.436Z,18.20
2023-01-21T08:44:09.072Z,17.60
2023-01-21T08:49:11.535Z,17.80
2023-01-21T08:54:13.831Z,18.20
2023-01-21T08:59:17.027Z,18.50
2023-01-21T09:04:19.308Z,18.50
2023-01-21T09:09:21.595Z,18.60
2023-01-21T09:14:23.883Z,18.10
2023-01-21T09:19:26.331Z,17.00
2023-01-21T09:24:28.688Z,16.00
2023-01-21T09:29:30.959Z,15.10
2023-01-21T09:34:35.562Z,14.40
2023-01-21T09:39:38.132Z,13.90
2023-01-21T09:44:44.977Z,13.40
2023-01-21T09:54:58.568Z,13.00
2023-01-21T10:05:46.808Z,12.60
2023-01-21T10:11:02.294Z,12.40
2023-01-21T10:21:45.794Z,12.10
2023-01-21T10:26:49.879Z,12.20
2023-01-21T10:31:59.501Z,12.40
2023-01-21T11:03:10.848Z,11.90
2023-01-21T11:08:20.177Z,11.70
2023-01-21T11:13:23.283Z,11.80
2023-01-21T11:18:43.047Z,12.00
2023-01-21T11:23:57.548Z,12.10
2023-01-21T11:34:20.545Z,11.90
2023-01-21T11:39:26.843Z,11.80
2023-01-21T11:44:29.075Z,11.90
2023-01-21T11:49:33.273Z,12.10
2023-01-21T11:54:40.455Z,12.10
2023-01-21T11:59:47.204Z,12.00
2023-01-21T12:04:54.037Z,11.70
2023-01-21T12:10:22.949Z,11.70
2023-01-21T12:25:58.037Z,11.80
2023-01-21T12:31:37.622Z,12.20
2023-01-21T12:36:53.209Z,12.20
2023-01-21T12:47:36.053Z,12.20
2023-01-21T12:53:02.717Z,12.50
2023-01-21T12:58:10.117Z,12.30
2023-01-21T13:13:42.003Z,12.30
2023-01-21T13:18:50.500Z,12.60
2023-01-21T13:50:29.965Z,12.20
2023-01-21T14:00:55.450Z,11.70
2023-01-21T14:06:22.468Z,11.70
2023-01-21T14:11:35.677Z,11.70
2023-01-21T14:22:12.949Z,11.70
2023-01-21T14:43:40.497Z,11.90
2023-01-21T14:54:15.079Z,12.20
2023-01-21T14:59:42.039Z,12.20
2023-01-21T15:04:54.601Z,12.40
2023-01-21T15:10:00.482Z,12.30
2023-01-21T15:15:24.206Z,12.30
2023-01-21T15:20:48.051Z,12.20
2023-01-21T15:36:34.752Z,11.90
2023-01-21T15:52:36.665Z,11.60
2023-01-21T16:03:16.269Z,11.50
2023-01-21T16:19:00.525Z,11.50
2023-01-21T16:24:08.629Z,11.20
2023-01-21T16:29:14.088Z,11.20
2023-01-21T16:34:38.029Z,11.30
2023-01-21T16:39:42.144Z,11.20
2023-01-21T16:44:44.375Z,11.00
2023-01-21T16:49:46.660Z,11.00
2023-01-21T16:54:51.775Z,10.90
2023-01-21T16:59:56.039Z,10.70
2023-01-21T17:05:00.924Z,10.60
2023-01-21T17:10:08.583Z,10.60
2023-01-21T17:15:25.559Z,10.70
2023-01-21T17:25:49.547Z,10.90
2023-01-21T17:31:21.074Z,10.80
2023-01-21T17:36:32.174Z,10.50
2023-01-21T17:41:37.898Z,10.20
2023-01-21T17:46:46.028Z,9.90
2023-01-21T17:51:49.313Z,10.10
2023-01-21T18:02:04.853Z,10.30
2023-01-21T18:12:29.559Z,10.70
2023-01-21T18:17:32.221Z,10.80
2023-01-21T18:22:36.087Z,10.80
2023-01-21T18:27:38.466Z,11.00
2023-01-21T18:32:42.675Z,11.10
2023-01-21T18:37:45.093Z,11.20
2023-01-21T18:42:50.811Z,11.10
2023-01-21T18:47:53.428Z,11.20
2023-01-21T18:52:56.624Z,11.30
2023-01-21T18:57:58.881Z,11.20
2023-01-21T19:03:01.715Z,11.20
2023-01-21T19:08:06.243Z,11.20
2023-01-21T19:13:10.074Z,11.30
2023-01-21T19:18:14.377Z,11.40
2023-01-21T19:23:18.391Z,11.40
2023-01-21T19:28:21.820Z,11.20
2023-01-21T19:33:25.059Z,11.30
2023-01-21T19:38:27.609Z,11.40
2023-01-21T19:43:29.954Z,11.40
2023-01-21T19:48:32.357Z,11.50
2023-01-21T19:53:34.838Z,11.30
2023-01-21T19:58:38.213Z,11.20
2023-01-21T20:03:54.614Z,11.10
2023-01-21T20:09:01.985Z,11.20
2023-01-21T20:14:04.324Z,11.10
2023-01-21T20:19:09.072Z,11.00
2023-01-21T20:24:11.398Z,10.80
2023-01-21T20:29:16.676Z,10.60
2023-01-21T20:34:18.891Z,10.60
2023-01-21T20:39:21.371Z,10.60
2023-01-21T20:44:25.226Z,10.60
2023-01-21T20:49:27.467Z,10.50
2023-01-21T20:54:29.718Z,10.60
2023-01-21T20:59:32.231Z,10.80
2023-01-21T21:20:19.782Z,11.00
2023-01-21T21:25:25.700Z,11.70
2023-01-21T21:30:33.086Z,11.90
2023-01-21T21:35:37.147Z,11.90
2023-01-21T21:40:39.417Z,12.10
2023-01-21T21:46:02.266Z,12.10
2023-01-21T21:51:06.478Z,12.10
2023-01-21T21:56:11.238Z,12.20
2023-01-21T22:01:21.017Z,12.30
2023-01-21T22:06:23.294Z,12.30
2023-01-21T22:11:26.797Z,12.40
2023-01-21T22:16:29.586Z,12.30
2023-01-21T22:21:34.080Z,12.10
2023-01-21T22:26:36.511Z,12.00
2023-01-21T22:31:38.880Z,12.20
2023-01-21T22:36:46.976Z,12.30
2023-01-21T22:41:49.296Z,12.30
2023-01-21T22:46:51.523Z,12.30
2023-01-21T22:51:55.125Z,12.20
2023-01-21T22:56:57.365Z,12.20
2023-01-21T23:01:59.563Z,12.20
2023-01-21T23:07:01.883Z,12.20
2023-01-21T23:12:04.312Z,12.20
2023-01-21T23:17:06.550Z,12.20
2023-01-21T23:22:09.072Z,12.30
2023-01-21T23:27:11.321Z,12.10
2023-01-21T23:32:13.604Z,11.90
2023-01-21T23:37:15.839Z,11.60
2023-01-21T23:42:19.477Z,11.20
2023-01-21T23:47:21.722Z,10.70
2023-01-21T23:52:23.945Z,10.30
2023-01-21T23:57:26.336Z,10.20
